Mistral — TCCH — position and weather

sailwx.info

Track history (hours):
 
Tides and Currents Weather Stations Pressure Air Temp Water Temp Dewpoint Dewpoint Depression Visibility Wind Speed Wind Dir Waves Ship Positions

Mistral

Last reported at 2017-Apr-28 13:22 UTC. Time now 2017-Apr-28 17:59 UTC.
Position N 59°53' E 023°14'.

Length 126 m; draft 4.1 m.

Type: Ship. MMSI: 271000615.

Date/timePositionNaut miles runAvg speedWind from/ knotsBaromVisibWave heightAir tempDewpointWater temp
2017-Apr-28 13:22N 59°53' E 023°14'0 0.0
2017-Apr-28 12:58N 59°53' E 023°14'0 0.0
2017-Apr-28 12:25N 59°53' E 023°14'0 0.0
2017-Apr-28 11:58N 59°53' E 023°14'0 0.0
2017-Apr-28 11:28N 59°53' E 023°14'0 0.0
2017-Apr-28 10:58N 59°53' E 023°14'0 0.0
2017-Apr-28 10:25N 59°53' E 023°14'0 0.0
2017-Apr-28 09:52N 59°53' E 023°14'0 0.0
2017-Apr-28 09:28N 59°53' E 023°14'0 0.0
2017-Apr-28 08:58N 59°53' E 023°14'0 0.0
2017-Apr-28 08:28N 59°53' E 023°14'0 0.0
2017-Apr-28 07:58N 59°53' E 023°14'0 0.0
2017-Apr-28 07:28N 59°53' E 023°14'0 0.0
2017-Apr-28 06:58N 59°53' E 023°14'0 0.0
2017-Apr-28 06:28N 59°53' E 023°14'0 0.0
2017-Apr-28 05:58N 59°53' E 023°14'0 0.0
2017-Apr-28 05:28N 59°53' E 023°14'0 0.0
2017-Apr-28 04:55N 59°53' E 023°14'0 0.0
2017-Apr-28 04:29N 59°53' E 023°14'0 0.8
2017-Apr-28 04:00N 59°53' E 023°14'4 7.2
2017-Apr-28 03:30N 59°49' E 023°17'510.1
2017-Apr-28 03:00N 59°48' E 023°07'4 7.2
2017-Apr-28 02:30N 59°46' E 023°01'30910.7
2017-Apr-26 21:32N 54°57' E 019°35'010.3
2017-Apr-26 21:29N 54°57' E 019°34'611.4
2017-Apr-26 20:59N 54°55' E 019°25'611.5
2017-Apr-26 20:30N 54°53' E 019°16'611.1
2017-Apr-26 20:00N 54°49' E 019°08'510.6
2017-Apr-26 19:31N 54°45' E 019°03'611.4
2017-Apr-26 19:01N 54°40' E 018°58'611.2
2017-Apr-26 18:30N 54°35' E 018°54'510.8
2017-Apr-26 18:00N 54°31' E 018°47'5 9.8
2017-Apr-26 17:30N 54°28' E 018°41'1 2.4
2017-Apr-26 17:00N 54°28' E 018°39'0 0.0
2017-Apr-26 16:30N 54°28' E 018°39'0 0.0
2017-Apr-26 16:00N 54°28' E 018°39'0 0.0
2017-Apr-26 15:30N 54°28' E 018°39'0 0.0
2017-Apr-26 15:00N 54°28' E 018°39'0 0.0
2017-Apr-26 14:30N 54°28' E 018°39'0 0.0
2017-Apr-26 13:30N 54°28' E 018°39'0 0.0
2017-Apr-26 13:00N 54°28' E 018°39'0 0.0
2017-Apr-26 12:30N 54°28' E 018°39'0 0.1
2017-Apr-26 12:00N 54°28' E 018°39'0 0.2
2017-Apr-26 11:30N 54°28' E 018°39'0 0.1
2017-Apr-26 11:00N 54°28' E 018°39'0 0.1
2017-Apr-26 10:30N 54°28' E 018°39'0 0.0
2017-Apr-26 10:00N 54°28' E 018°39'0 0.1
2017-Apr-26 09:30N 54°28' E 018°39'0 0.0
2017-Apr-26 09:00N 54°28' E 018°39'0 0.0
2017-Apr-26 08:30N 54°28' E 018°39'0 0.0
2017-Apr-26 08:00N 54°28' E 018°39'0 0.0
2017-Apr-26 07:30N 54°28' E 018°39'0 0.0
2017-Apr-26 07:00N 54°28' E 018°39'0 0.0
2017-Apr-26 06:30N 54°28' E 018°39'0 0.1
2017-Apr-26 06:00N 54°28' E 018°39'0 0.0
2017-Apr-26 05:30N 54°28' E 018°39'0 0.0
2017-Apr-26 05:00N 54°28' E 018°39'0 0.0
2017-Apr-26 04:30N 54°28' E 018°39'0 0.0
2017-Apr-26 04:00N 54°28' E 018°39'0 0.0
2017-Apr-26 03:30N 54°28' E 018°39'0 0.0
2017-Apr-26 03:00N 54°28' E 018°39'0 0.0
2017-Apr-26 02:30N 54°28' E 018°39'0 0.0
2017-Apr-26 02:00N 54°28' E 018°39'0 0.0
2017-Apr-26 01:30N 54°28' E 018°39'0 0.0
2017-Apr-26 01:00N 54°28' E 018°39'0 0.0
2017-Apr-26 00:30N 54°28' E 018°39'0 0.0
2017-Apr-26 00:00N 54°28' E 018°39'0 0.0
2017-Apr-25 23:30N 54°28' E 018°39'0 0.0
2017-Apr-25 23:00N 54°28' E 018°39'1 1.6
2017-Apr-25 22:30N 54°27' E 018°39'3 6.0
2017-Apr-25 22:00N 54°24' E 018°41'1 2.3
2017-Apr-25 21:29N 54°23' E 018°40'0 0.0
2017-Apr-25 20:59N 54°23' E 018°40'0 0.0
2017-Apr-25 20:29N 54°23' E 018°40'0 0.0
2017-Apr-25 19:59N 54°23' E 018°40'0 0.0
2017-Apr-25 19:29N 54°23' E 018°40'0 0.0
2017-Apr-25 18:59N 54°23' E 018°40'0 0.0
2017-Apr-25 18:29N 54°23' E 018°40'0 0.0
2017-Apr-25 17:59N 54°23' E 018°40'0 0.0
2017-Apr-25 17:29N 54°23' E 018°40'0 0.0
2017-Apr-25 16:59N 54°23' E 018°40'0 0.0
2017-Apr-25 16:29N 54°23' E 018°40'0 0.0
2017-Apr-25 15:59N 54°23' E 018°40'0 0.0
2017-Apr-25 15:29N 54°23' E 018°40'0 0.0
2017-Apr-25 14:59N 54°23' E 018°40'0 0.0
2017-Apr-25 13:59N 54°23' E 018°40'0 0.0
2017-Apr-25 13:29N 54°23' E 018°40'0 0.0
2017-Apr-25 12:59N 54°23' E 018°40'0 0.0
2017-Apr-25 12:29N 54°23' E 018°40'0 0.0
2017-Apr-25 11:59N 54°23' E 018°40'0 0.0
2017-Apr-25 11:29N 54°23' E 018°40'0 0.0
2017-Apr-25 10:59N 54°23' E 018°40'0 0.0
2017-Apr-25 10:29N 54°23' E 018°40'0 0.0
2017-Apr-25 09:59N 54°23' E 018°40'0 0.0
2017-Apr-25 09:29N 54°23' E 018°40'0 0.0
2017-Apr-25 08:59N 54°23' E 018°40'0 0.0
2017-Apr-25 08:29N 54°23' E 018°40'0 0.0
2017-Apr-25 07:59N 54°23' E 018°40'0 0.0
2017-Apr-25 07:29N 54°23' E 018°40'0 0.0
2017-Apr-25 06:59N 54°23' E 018°40'0 0.0
2017-Apr-25 06:29N 54°23' E 018°40'0 0.0
2017-Apr-25 05:59N 54°23' E 018°40'0 0.0
2017-Apr-25 05:29N 54°23' E 018°40'0 0.0
2017-Apr-25 04:59N 54°23' E 018°40'0 0.0
2017-Apr-25 04:29N 54°23' E 018°40'0 0.0
2017-Apr-25 03:59N 54°23' E 018°40'0 0.0
2017-Apr-25 03:29N 54°23' E 018°40'0 0.0
2017-Apr-25 02:59N 54°23' E 018°40'0 0.0
2017-Apr-25 02:29N 54°23' E 018°40'0 0.0
2017-Apr-25 01:59N 54°23' E 018°40'0 0.0
2017-Apr-25 01:29N 54°23' E 018°40'0 0.0
2017-Apr-25 00:59N 54°23' E 018°40'0 0.0
2017-Apr-25 00:29N 54°23' E 018°40'0 0.0
2017-Apr-24 23:59N 54°23' E 018°40'0 0.0
2017-Apr-24 23:29N 54°23' E 018°40'0 0.0
2017-Apr-24 22:59N 54°23' E 018°40'0 0.0
2017-Apr-24 22:29N 54°23' E 018°40'0 0.0
2017-Apr-24 21:59N 54°23' E 018°40'0 0.0
2017-Apr-24 21:29N 54°23' E 018°40'0 0.0
2017-Apr-24 20:59N 54°23' E 018°40'0 0.0
2017-Apr-24 20:29N 54°23' E 018°40'0 0.0
2017-Apr-24 19:59N 54°23' E 018°40'0 0.0
2017-Apr-24 19:29N 54°23' E 018°40'0 0.0
2017-Apr-24 18:59N 54°23' E 018°40'0 0.0
2017-Apr-24 18:29N 54°23' E 018°40'0 0.0
2017-Apr-24 17:59N 54°23' E 018°40'0 0.0
2017-Apr-24 17:29N 54°23' E 018°40'0 0.0
2017-Apr-24 16:59N 54°23' E 018°40'0 0.0
2017-Apr-24 16:29N 54°23' E 018°40'0 0.0
2017-Apr-24 15:59N 54°23' E 018°40'0 0.0
2017-Apr-24 15:29N 54°23' E 018°40'0 0.0
2017-Apr-24 14:59N 54°23' E 018°40'0 0.0
2017-Apr-24 14:29N 54°23' E 018°40'0 0.0
2017-Apr-24 13:29N 54°23' E 018°40'0 0.0
2017-Apr-24 12:59N 54°23' E 018°40'0 0.0
2017-Apr-24 12:29N 54°23' E 018°40'0 0.0
2017-Apr-24 11:59N 54°23' E 018°40'0 0.0
2017-Apr-24 11:29N 54°23' E 018°40'0 0.0
2017-Apr-24 10:59N 54°23' E 018°40'0 0.0
2017-Apr-24 10:29N 54°23' E 018°40'0 0.0
2017-Apr-24 09:59N 54°23' E 018°40'0 0.0
2017-Apr-24 09:29N 54°23' E 018°40'0 0.0
2017-Apr-24 08:59N 54°23' E 018°40'0 0.0
2017-Apr-24 08:29N 54°23' E 018°40'0 0.0
2017-Apr-24 07:59N 54°23' E 018°40'0 0.0
2017-Apr-24 07:29N 54°23' E 018°40'0 0.0
2017-Apr-24 06:56N 54°23' E 018°40'0 0.0
2017-Apr-24 06:29N 54°23' E 018°40'0 0.0
2017-Apr-24 05:59N 54°23' E 018°40'0 0.0
2017-Apr-24 05:29N 54°23' E 018°40'0 0.0
2017-Apr-24 04:59N 54°23' E 018°40'0 0.0
2017-Apr-24 04:29N 54°23' E 018°40'0 0.0
2017-Apr-24 03:59N 54°23' E 018°40'0 0.0
2017-Apr-24 03:29N 54°23' E 018°40'0 0.0
2017-Apr-24 02:59N 54°23' E 018°40'0 0.0
2017-Apr-24 02:29N 54°23' E 018°40'0 0.0
2017-Apr-24 01:59N 54°23' E 018°40'0 0.0
2017-Apr-24 01:29N 54°23' E 018°40'0 0.0
2017-Apr-24 00:59N 54°23' E 018°40'0 0.0
2017-Apr-24 00:29N 54°23' E 018°40'0 0.0
2017-Apr-23 23:59N 54°23' E 018°40'0 0.0
2017-Apr-23 23:29N 54°23' E 018°40'0 0.3
2017-Apr-23 23:00N 54°23' E 018°40'3 5.2
2017-Apr-23 22:30N 54°26' E 018°39'2 4.3
2017-Apr-23 21:59N 54°28' E 018°41'1 0.5
2017-Apr-23 20:58N 54°28' E 018°40'0 0.0
2017-Apr-23 20:28N 54°28' E 018°40'0 0.0
2017-Apr-23 19:58N 54°28' E 018°40'0 0.0
2017-Apr-23 19:28N 54°28' E 018°40'0 0.0
2017-Apr-23 18:58N 54°28' E 018°40'0 0.1
2017-Apr-23 18:28N 54°28' E 018°40'0 0.0
2017-Apr-23 17:58N 54°28' E 018°40'0 0.2
2017-Apr-23 17:28N 54°28' E 018°40'0 0.0
2017-Apr-23 16:58N 54°28' E 018°40'0 0.0
2017-Apr-23 16:28N 54°28' E 018°40'0 0.0
2017-Apr-23 15:58N 54°28' E 018°40'0 0.0
2017-Apr-23 15:28N 54°28' E 018°40'0 0.0
2017-Apr-23 14:58N 54°28' E 018°40'0 0.1
2017-Apr-23 13:58N 54°28' E 018°40'0 0.1
2017-Apr-23 13:28N 54°28' E 018°40'0 0.2
2017-Apr-23 12:58N 54°28' E 018°40'0 0.1
2017-Apr-23 12:28N 54°28' E 018°40'0 0.0
2017-Apr-23 11:58N 54°28' E 018°40'0 0.0
2017-Apr-23 11:28N 54°28' E 018°40'0 0.0
2017-Apr-23 10:58N 54°28' E 018°40'0 0.1
2017-Apr-23 10:28N 54°28' E 018°40'0 0.0
2017-Apr-23 09:58N 54°28' E 018°40'0 0.1
2017-Apr-23 09:28N 54°28' E 018°40'0 0.0
2017-Apr-23 08:58N 54°28' E 018°40'0 0.0
2017-Apr-23 08:28N 54°28' E 018°40'0 0.0
2017-Apr-23 07:58N 54°28' E 018°40'0 0.1
2017-Apr-23 07:28N 54°28' E 018°40'0 0.0
2017-Apr-23 06:58N 54°28' E 018°40'0 0.0
2017-Apr-23 06:28N 54°28' E 018°40'0 0.0
2017-Apr-23 05:58N 54°28' E 018°40'0 0.1
2017-Apr-23 05:29N 54°28' E 018°40'2 3.5
2017-Apr-23 05:00N 54°29' E 018°42'4 7.5
2017-Apr-23 04:30N 54°31' E 018°47'4 7.9
2017-Apr-23 04:00N 54°34' E 018°51'5 9.7
2017-Apr-23 03:30N 54°39' E 018°55'5 9.9
2017-Apr-23 03:00N 54°43' E 018°58'4 8.7
2017-Apr-23 02:30N 54°47' E 018°53'5 9.8
2017-Apr-23 02:00N 54°50' E 018°47'510.0
2017-Apr-23 01:30N 54°54' E 018°41'510.2
2017-Apr-23 01:00N 54°58' E 018°36'510.1
2017-Apr-23 00:30N 55°02' E 018°30'1010.2
2017-Apr-22 23:32N 55°02' E 018°13'110.1
2017-Apr-22 23:27N 55°02' E 018°11'184 8.8
2017-Apr-22 02:32N 54°44' E 012°52'010.7
2017-Apr-22 02:30N 54°44' E 012°52'510.7
2017-Apr-22 02:00N 54°43' E 012°43'5 9.7
2017-Apr-22 01:30N 54°42' E 012°35'5 9.8
2017-Apr-22 01:00N 54°38' E 012°28'14 9.8
2017-Apr-21 23:35N 54°28' E 012°13'2 8.0
2017-Apr-21 23:17N 54°25' E 012°12'2 8.8
2017-Apr-21 23:00N 54°24' E 012°08'5 9.7
2017-Apr-21 22:30N 54°24' E 011°60'510.0
2017-Apr-21 22:00N 54°25' E 011°51'9 9.9
2017-Apr-21 21:05N 54°28' E 011°36'210.5
2017-Apr-21 20:52N 54°29' E 011°33'410.7
2017-Apr-21 20:29N 54°30' E 011°26'510.7
2017-Apr-21 20:00N 54°33' E 011°19'510.6
2017-Apr-21 19:30N 54°36' E 011°11'510.5
2017-Apr-21 19:00N 54°38' E 011°03'510.3
2017-Apr-21 18:30N 54°41' E 010°56'4 8.7
2017-Apr-21 18:00N 54°45' E 010°52'510.0
2017-Apr-21 17:30N 54°50' E 010°52'510.0
2017-Apr-21 17:00N 54°55' E 010°54'5 9.2
2017-Apr-21 16:30N 54°58' E 010°59'4 8.8
2017-Apr-21 16:00N 55°02' E 011°02'139 9.0
2017-Apr-21 00:38N 57°20' E 010°43'3 9.9
2017-Apr-21 00:22N 57°23' E 010°44'4 9.4
2017-Apr-20 23:58N 57°27' E 010°45'6 9.5
2017-Apr-20 23:22N 57°32' E 010°45'3 9.3
2017-Apr-20 23:00N 57°36' E 010°44'5 9.1
2017-Apr-20 22:30N 57°40' E 010°45'5 9.1
2017-Apr-20 21:59N 57°45' E 010°46'4 9.4
2017-Apr-20 21:30N 57°46' E 010°38'8610.3
2017-Apr-20 13:06N 57°02' E 008°20'1 9.9
2017-Apr-20 13:00N 57°02' E 008°19'5 9.7
2017-Apr-20 12:29N 56°58' E 008°12'5 9.6
2017-Apr-20 11:59N 56°54' E 008°09'5 9.5
2017-Apr-20 11:30N 56°49' E 008°07'70 8.4
2017-Apr-20 03:09N 55°45' E 007°15'1 9.2
2017-Apr-20 03:00N 55°44' E 007°14'302 8.8
2017-Apr-18 16:38N 51°36' E 002°22'1 8.8
2017-Apr-18 16:30N 51°35' E 002°21'4 8.4
2017-Apr-18 15:59N 51°32' E 002°16'4 8.1
2017-Apr-18 15:29N 51°29' E 002°12'4 8.1
2017-Apr-18 15:00N 51°26' E 002°08'4 7.8
2017-Apr-18 14:30N 51°23' E 002°04'8 7.6
2017-Apr-18 13:30N 51°17' E 001°56'  
Track history (hours):
 
Tides and Currents Weather Stations Pressure Air Temp Water Temp Dewpoint Dewpoint Depression Visibility Wind Speed Wind Dir Waves Ship Positions

Mistral

Last reported at 2017-Apr-28 13:22 UTC. Time now 2017-Apr-28 17:59 UTC.
Position N 59°53' E 023°14'.

Length 126 m; draft 4.1 m.

Type: Ship. MMSI: 271000615.

Date/timePositionNaut miles runAvg speedWind from/ knotsBaromVisibWave heightAir tempDewpointWater temp
2017-Apr-28 13:22N 59°53' E 023°14'0 0.0
2017-Apr-28 12:58N 59°53' E 023°14'0 0.0
2017-Apr-28 12:25N 59°53' E 023°14'0 0.0
2017-Apr-28 11:58N 59°53' E 023°14'0 0.0
2017-Apr-28 11:28N 59°53' E 023°14'0 0.0
2017-Apr-28 10:58N 59°53' E 023°14'0 0.0
2017-Apr-28 10:25N 59°53' E 023°14'0 0.0
2017-Apr-28 09:52N 59°53' E 023°14'0 0.0
2017-Apr-28 09:28N 59°53' E 023°14'0 0.0
2017-Apr-28 08:58N 59°53' E 023°14'0 0.0
2017-Apr-28 08:28N 59°53' E 023°14'0 0.0
2017-Apr-28 07:58N 59°53' E 023°14'0 0.0
2017-Apr-28 07:28N 59°53' E 023°14'0 0.0
2017-Apr-28 06:58N 59°53' E 023°14'0 0.0
2017-Apr-28 06:28N 59°53' E 023°14'0 0.0
2017-Apr-28 05:58N 59°53' E 023°14'0 0.0
2017-Apr-28 05:28N 59°53' E 023°14'0 0.0
2017-Apr-28 04:55N 59°53' E 023°14'0 0.0
2017-Apr-28 04:29N 59°53' E 023°14'0 0.8
2017-Apr-28 04:00N 59°53' E 023°14'4 7.2
2017-Apr-28 03:30N 59°49' E 023°17'510.1
2017-Apr-28 03:00N 59°48' E 023°07'4 7.2
2017-Apr-28 02:30N 59°46' E 023°01'30910.7
2017-Apr-26 21:32N 54°57' E 019°35'010.3
2017-Apr-26 21:29N 54°57' E 019°34'611.4
2017-Apr-26 20:59N 54°55' E 019°25'611.5
2017-Apr-26 20:30N 54°53' E 019°16'611.1
2017-Apr-26 20:00N 54°49' E 019°08'510.6
2017-Apr-26 19:31N 54°45' E 019°03'611.4
2017-Apr-26 19:01N 54°40' E 018°58'611.2
2017-Apr-26 18:30N 54°35' E 018°54'510.8
2017-Apr-26 18:00N 54°31' E 018°47'5 9.8
2017-Apr-26 17:30N 54°28' E 018°41'1 2.4
2017-Apr-26 17:00N 54°28' E 018°39'0 0.0
2017-Apr-26 16:30N 54°28' E 018°39'0 0.0
2017-Apr-26 16:00N 54°28' E 018°39'0 0.0
2017-Apr-26 15:30N 54°28' E 018°39'0 0.0
2017-Apr-26 15:00N 54°28' E 018°39'0 0.0
2017-Apr-26 14:30N 54°28' E 018°39'0 0.0
2017-Apr-26 13:30N 54°28' E 018°39'0 0.0
2017-Apr-26 13:00N 54°28' E 018°39'0 0.0
2017-Apr-26 12:30N 54°28' E 018°39'0 0.1
2017-Apr-26 12:00N 54°28' E 018°39'0 0.2
2017-Apr-26 11:30N 54°28' E 018°39'0 0.1
2017-Apr-26 11:00N 54°28' E 018°39'0 0.1
2017-Apr-26 10:30N 54°28' E 018°39'0 0.0
2017-Apr-26 10:00N 54°28' E 018°39'0 0.1
2017-Apr-26 09:30N 54°28' E 018°39'0 0.0
2017-Apr-26 09:00N 54°28' E 018°39'0 0.0
2017-Apr-26 08:30N 54°28' E 018°39'0 0.0
2017-Apr-26 08:00N 54°28' E 018°39'0 0.0
2017-Apr-26 07:30N 54°28' E 018°39'0 0.0
2017-Apr-26 07:00N 54°28' E 018°39'0 0.0
2017-Apr-26 06:30N 54°28' E 018°39'0 0.1
2017-Apr-26 06:00N 54°28' E 018°39'0 0.0
2017-Apr-26 05:30N 54°28' E 018°39'0 0.0
2017-Apr-26 05:00N 54°28' E 018°39'0 0.0
2017-Apr-26 04:30N 54°28' E 018°39'0 0.0
2017-Apr-26 04:00N 54°28' E 018°39'0 0.0
2017-Apr-26 03:30N 54°28' E 018°39'0 0.0
2017-Apr-26 03:00N 54°28' E 018°39'0 0.0
2017-Apr-26 02:30N 54°28' E 018°39'0 0.0
2017-Apr-26 02:00N 54°28' E 018°39'0 0.0
2017-Apr-26 01:30N 54°28' E 018°39'0 0.0
2017-Apr-26 01:00N 54°28' E 018°39'0 0.0
2017-Apr-26 00:30N 54°28' E 018°39'0 0.0
2017-Apr-26 00:00N 54°28' E 018°39'0 0.0
2017-Apr-25 23:30N 54°28' E 018°39'0 0.0
2017-Apr-25 23:00N 54°28' E 018°39'1 1.6
2017-Apr-25 22:30N 54°27' E 018°39'3 6.0
2017-Apr-25 22:00N 54°24' E 018°41'1 2.3
2017-Apr-25 21:29N 54°23' E 018°40'0 0.0
2017-Apr-25 20:59N 54°23' E 018°40'0 0.0
2017-Apr-25 20:29N 54°23' E 018°40'0 0.0
2017-Apr-25 19:59N 54°23' E 018°40'0 0.0
2017-Apr-25 19:29N 54°23' E 018°40'0 0.0
2017-Apr-25 18:59N 54°23' E 018°40'0 0.0
2017-Apr-25 18:29N 54°23' E 018°40'0 0.0
2017-Apr-25 17:59N 54°23' E 018°40'0 0.0
2017-Apr-25 17:29N 54°23' E 018°40'0 0.0
2017-Apr-25 16:59N 54°23' E 018°40'0 0.0
2017-Apr-25 16:29N 54°23' E 018°40'0 0.0
2017-Apr-25 15:59N 54°23' E 018°40'0 0.0
2017-Apr-25 15:29N 54°23' E 018°40'0 0.0
2017-Apr-25 14:59N 54°23' E 018°40'0 0.0
2017-Apr-25 13:59N 54°23' E 018°40'0 0.0
2017-Apr-25 13:29N 54°23' E 018°40'0 0.0
2017-Apr-25 12:59N 54°23' E 018°40'0 0.0
2017-Apr-25 12:29N 54°23' E 018°40'0 0.0
2017-Apr-25 11:59N 54°23' E 018°40'0 0.0
2017-Apr-25 11:29N 54°23' E 018°40'0 0.0
2017-Apr-25 10:59N 54°23' E 018°40'0 0.0
2017-Apr-25 10:29N 54°23' E 018°40'0 0.0
2017-Apr-25 09:59N 54°23' E 018°40'0 0.0
2017-Apr-25 09:29N 54°23' E 018°40'0 0.0
2017-Apr-25 08:59N 54°23' E 018°40'0 0.0
2017-Apr-25 08:29N 54°23' E 018°40'0 0.0
2017-Apr-25 07:59N 54°23' E 018°40'0 0.0
2017-Apr-25 07:29N 54°23' E 018°40'0 0.0
2017-Apr-25 06:59N 54°23' E 018°40'0 0.0
2017-Apr-25 06:29N 54°23' E 018°40'0 0.0
2017-Apr-25 05:59N 54°23' E 018°40'0 0.0
2017-Apr-25 05:29N 54°23' E 018°40'0 0.0
2017-Apr-25 04:59N 54°23' E 018°40'0 0.0
2017-Apr-25 04:29N 54°23' E 018°40'0 0.0
2017-Apr-25 03:59N 54°23' E 018°40'0 0.0
2017-Apr-25 03:29N 54°23' E 018°40'0 0.0
2017-Apr-25 02:59N 54°23' E 018°40'0 0.0
2017-Apr-25 02:29N 54°23' E 018°40'0 0.0
2017-Apr-25 01:59N 54°23' E 018°40'0 0.0
2017-Apr-25 01:29N 54°23' E 018°40'0 0.0
2017-Apr-25 00:59N 54°23' E 018°40'0 0.0
2017-Apr-25 00:29N 54°23' E 018°40'0 0.0
2017-Apr-24 23:59N 54°23' E 018°40'0 0.0
2017-Apr-24 23:29N 54°23' E 018°40'0 0.0
2017-Apr-24 22:59N 54°23' E 018°40'0 0.0
2017-Apr-24 22:29N 54°23' E 018°40'0 0.0
2017-Apr-24 21:59N 54°23' E 018°40'0 0.0
2017-Apr-24 21:29N 54°23' E 018°40'0 0.0
2017-Apr-24 20:59N 54°23' E 018°40'0 0.0
2017-Apr-24 20:29N 54°23' E 018°40'0 0.0
2017-Apr-24 19:59N 54°23' E 018°40'0 0.0
2017-Apr-24 19:29N 54°23' E 018°40'0 0.0
2017-Apr-24 18:59N 54°23' E 018°40'0 0.0
2017-Apr-24 18:29N 54°23' E 018°40'0 0.0
2017-Apr-24 17:59N 54°23' E 018°40'0 0.0
2017-Apr-24 17:29N 54°23' E 018°40'0 0.0
2017-Apr-24 16:59N 54°23' E 018°40'0 0.0
2017-Apr-24 16:29N 54°23' E 018°40'0 0.0
2017-Apr-24 15:59N 54°23' E 018°40'0 0.0
2017-Apr-24 15:29N 54°23' E 018°40'0 0.0
2017-Apr-24 14:59N 54°23' E 018°40'0 0.0
2017-Apr-24 14:29N 54°23' E 018°40'0 0.0
2017-Apr-24 13:29N 54°23' E 018°40'0 0.0
2017-Apr-24 12:59N 54°23' E 018°40'0 0.0
2017-Apr-24 12:29N 54°23' E 018°40'0 0.0
2017-Apr-24 11:59N 54°23' E 018°40'0 0.0
2017-Apr-24 11:29N 54°23' E 018°40'0 0.0
2017-Apr-24 10:59N 54°23' E 018°40'0 0.0
2017-Apr-24 10:29N 54°23' E 018°40'0 0.0
2017-Apr-24 09:59N 54°23' E 018°40'0 0.0
2017-Apr-24 09:29N 54°23' E 018°40'0 0.0
2017-Apr-24 08:59N 54°23' E 018°40'0 0.0
2017-Apr-24 08:29N 54°23' E 018°40'0 0.0
2017-Apr-24 07:59N 54°23' E 018°40'0 0.0
2017-Apr-24 07:29N 54°23' E 018°40'0 0.0
2017-Apr-24 06:56N 54°23' E 018°40'0 0.0
2017-Apr-24 06:29N 54°23' E 018°40'0 0.0
2017-Apr-24 05:59N 54°23' E 018°40'0 0.0
2017-Apr-24 05:29N 54°23' E 018°40'0 0.0
2017-Apr-24 04:59N 54°23' E 018°40'0 0.0
2017-Apr-24 04:29N 54°23' E 018°40'0 0.0
2017-Apr-24 03:59N 54°23' E 018°40'0 0.0
2017-Apr-24 03:29N 54°23' E 018°40'0 0.0
2017-Apr-24 02:59N 54°23' E 018°40'0 0.0
2017-Apr-24 02:29N 54°23' E 018°40'0 0.0
2017-Apr-24 01:59N 54°23' E 018°40'0 0.0
2017-Apr-24 01:29N 54°23' E 018°40'0 0.0
2017-Apr-24 00:59N 54°23' E 018°40'0 0.0
2017-Apr-24 00:29N 54°23' E 018°40'0 0.0
2017-Apr-23 23:59N 54°23' E 018°40'0 0.0
2017-Apr-23 23:29N 54°23' E 018°40'0 0.3
2017-Apr-23 23:00N 54°23' E 018°40'3 5.2
2017-Apr-23 22:30N 54°26' E 018°39'2 4.3
2017-Apr-23 21:59N 54°28' E 018°41'1 0.5
2017-Apr-23 20:58N 54°28' E 018°40'0 0.0
2017-Apr-23 20:28N 54°28' E 018°40'0 0.0
2017-Apr-23 19:58N 54°28' E 018°40'0 0.0
2017-Apr-23 19:28N 54°28' E 018°40'0 0.0
2017-Apr-23 18:58N 54°28' E 018°40'0 0.1
2017-Apr-23 18:28N 54°28' E 018°40'0 0.0
2017-Apr-23 17:58N 54°28' E 018°40'0 0.2
2017-Apr-23 17:28N 54°28' E 018°40'0 0.0
2017-Apr-23 16:58N 54°28' E 018°40'0 0.0
2017-Apr-23 16:28N 54°28' E 018°40'0 0.0
2017-Apr-23 15:58N 54°28' E 018°40'0 0.0
2017-Apr-23 15:28N 54°28' E 018°40'0 0.0
2017-Apr-23 14:58N 54°28' E 018°40'0 0.1
2017-Apr-23 13:58N 54°28' E 018°40'0 0.1
2017-Apr-23 13:28N 54°28' E 018°40'0 0.2
2017-Apr-23 12:58N 54°28' E 018°40'0 0.1
2017-Apr-23 12:28N 54°28' E 018°40'0 0.0
2017-Apr-23 11:58N 54°28' E 018°40'0 0.0
2017-Apr-23 11:28N 54°28' E 018°40'0 0.0
2017-Apr-23 10:58N 54°28' E 018°40'0 0.1
2017-Apr-23 10:28N 54°28' E 018°40'0 0.0
2017-Apr-23 09:58N 54°28' E 018°40'0 0.1
2017-Apr-23 09:28N 54°28' E 018°40'0 0.0
2017-Apr-23 08:58N 54°28' E 018°40'0 0.0
2017-Apr-23 08:28N 54°28' E 018°40'0 0.0
2017-Apr-23 07:58N 54°28' E 018°40'0 0.1
2017-Apr-23 07:28N 54°28' E 018°40'0 0.0
2017-Apr-23 06:58N 54°28' E 018°40'0 0.0
2017-Apr-23 06:28N 54°28' E 018°40'0 0.0
2017-Apr-23 05:58N 54°28' E 018°40'0 0.1
2017-Apr-23 05:29N 54°28' E 018°40'2 3.5
2017-Apr-23 05:00N 54°29' E 018°42'4 7.5
2017-Apr-23 04:30N 54°31' E 018°47'4 7.9
2017-Apr-23 04:00N 54°34' E 018°51'5 9.7
2017-Apr-23 03:30N 54°39' E 018°55'5 9.9
2017-Apr-23 03:00N 54°43' E 018°58'4 8.7
2017-Apr-23 02:30N 54°47' E 018°53'5 9.8
2017-Apr-23 02:00N 54°50' E 018°47'510.0
2017-Apr-23 01:30N 54°54' E 018°41'510.2
2017-Apr-23 01:00N 54°58' E 018°36'510.1
2017-Apr-23 00:30N 55°02' E 018°30'1010.2
2017-Apr-22 23:32N 55°02' E 018°13'110.1
2017-Apr-22 23:27N 55°02' E 018°11'184 8.8
2017-Apr-22 02:32N 54°44' E 012°52'010.7
2017-Apr-22 02:30N 54°44' E 012°52'510.7
2017-Apr-22 02:00N 54°43' E 012°43'5 9.7
2017-Apr-22 01:30N 54°42' E 012°35'5 9.8
2017-Apr-22 01:00N 54°38' E 012°28'14 9.8
2017-Apr-21 23:35N 54°28' E 012°13'2 8.0
2017-Apr-21 23:17N 54°25' E 012°12'2 8.8
2017-Apr-21 23:00N 54°24' E 012°08'5 9.7
2017-Apr-21 22:30N 54°24' E 011°60'510.0
2017-Apr-21 22:00N 54°25' E 011°51'9 9.9
2017-Apr-21 21:05N 54°28' E 011°36'210.5
2017-Apr-21 20:52N 54°29' E 011°33'410.7
2017-Apr-21 20:29N 54°30' E 011°26'510.7
2017-Apr-21 20:00N 54°33' E 011°19'510.6
2017-Apr-21 19:30N 54°36' E 011°11'510.5
2017-Apr-21 19:00N 54°38' E 011°03'510.3
2017-Apr-21 18:30N 54°41' E 010°56'4 8.7
2017-Apr-21 18:00N 54°45' E 010°52'510.0
2017-Apr-21 17:30N 54°50' E 010°52'510.0
2017-Apr-21 17:00N 54°55' E 010°54'5 9.2
2017-Apr-21 16:30N 54°58' E 010°59'4 8.8
2017-Apr-21 16:00N 55°02' E 011°02'139 9.0
2017-Apr-21 00:38N 57°20' E 010°43'3 9.9
2017-Apr-21 00:22N 57°23' E 010°44'4 9.4
2017-Apr-20 23:58N 57°27' E 010°45'6 9.5
2017-Apr-20 23:22N 57°32' E 010°45'3 9.3
2017-Apr-20 23:00N 57°36' E 010°44'5 9.1
2017-Apr-20 22:30N 57°40' E 010°45'5 9.1
2017-Apr-20 21:59N 57°45' E 010°46'4 9.4
2017-Apr-20 21:30N 57°46' E 010°38'8610.3
2017-Apr-20 13:06N 57°02' E 008°20'1 9.9
2017-Apr-20 13:00N 57°02' E 008°19'5 9.7
2017-Apr-20 12:29N 56°58' E 008°12'5 9.6
2017-Apr-20 11:59N 56°54' E 008°09'5 9.5
2017-Apr-20 11:30N 56°49' E 008°07'70 8.4
2017-Apr-20 03:09N 55°45' E 007°15'1 9.2
2017-Apr-20 03:00N 55°44' E 007°14'302 8.8
2017-Apr-18 16:38N 51°36' E 002°22'1 8.8
2017-Apr-18 16:30N 51°35' E 002°21'4 8.4
2017-Apr-18 15:59N 51°32' E 002°16'4 8.1
2017-Apr-18 15:29N 51°29' E 002°12'4 8.1
2017-Apr-18 15:00N 51°26' E 002°08'4 7.8
2017-Apr-18 14:30N 51°23' E 002°04'8 7.6
2017-Apr-18 13:30N 51°17' E 001°56'  

Dump ship's entire track history